createdAt,value
2017-12-26T00:01:16.851Z,41.57
2017-12-26T00:03:44.292Z,40.83
2017-12-26T00:06:13.177Z,40.87
2017-12-26T00:08:41.768Z,39.53
2017-12-26T00:11:09.951Z,39.10
2017-12-26T00:13:37.378Z,40.40
2017-12-26T00:16:04.814Z,37.63
2017-12-26T00:18:33.071Z,39.53
2017-12-26T00:21:00.924Z,37.70
2017-12-26T00:23:28.893Z,38.53
2017-12-26T00:25:56.315Z,37.60
2017-12-26T00:28:24.508Z,36.87
2017-12-26T00:30:51.935Z,33.93
2017-12-26T00:33:19.356Z,36.90
2017-12-26T00:35:46.788Z,35.27
2017-12-26T00:38:16.699Z,34.97
2017-12-26T00:40:45.141Z,36.57
2017-12-26T00:43:12.545Z,35.20
2017-12-26T00:45:39.982Z,35.63
2017-12-26T00:48:10.600Z,34.93
2017-12-26T00:50:38.796Z,36.57
2017-12-26T00:53:06.255Z,36.40
2017-12-26T00:55:33.679Z,36.80
2017-12-26T00:58:01.104Z,34.77
2017-12-26T01:00:28.523Z,37.80
2017-12-26T01:02:55.943Z,38.27
2017-12-26T01:05:23.923Z,37.03
2017-12-26T01:07:54.678Z,37.03
2017-12-26T01:10:22.100Z,34.13
2017-12-26T01:12:49.537Z,38.27
2017-12-26T01:15:16.975Z,38.53
2017-12-26T01:17:44.399Z,35.63
2017-12-26T01:20:11.868Z,35.87
2017-12-26T01:22:39.832Z,35.90
2017-12-26T01:25:07.988Z,35.23
2017-12-26T01:27:36.183Z,34.90
2017-12-26T01:30:03.738Z,35.63
2017-12-26T01:32:31.165Z,37.30
2017-12-26T01:34:58.582Z,35.20
2017-12-26T01:37:26.010Z,36.27
2017-12-26T01:39:53.430Z,35.87
2017-12-26T01:42:21.659Z,35.60
2017-12-26T01:44:49.078Z,35.10
2017-12-26T01:47:17.267Z,31.63
2017-12-26T01:49:47.299Z,34.87
2017-12-26T01:52:15.532Z,31.23
2017-12-26T01:54:42.951Z,31.47
2017-12-26T01:57:10.385Z,30.23
2017-12-26T01:59:37.805Z,31.50
2017-12-26T02:02:05.244Z,31.93
2017-12-26T02:04:32.666Z,28.07
2017-12-26T02:07:02.658Z,26.93
2017-12-26T02:09:30.848Z,28.37
2017-12-26T02:11:58.280Z,30.80
2017-12-26T02:14:26.474Z,30.37
2017-12-26T02:16:53.906Z,29.80
2017-12-26T02:19:22.105Z,31.73
2017-12-26T02:21:49.573Z,29.90
2017-12-26T02:24:17.320Z,28.23
2017-12-26T02:26:44.744Z,28.83
2017-12-26T02:29:12.737Z,26.00
2017-12-26T02:31:40.929Z,27.30
2017-12-26T02:34:08.359Z,25.40
2017-12-26T02:36:36.971Z,25.90
2017-12-26T02:39:04.757Z,23.70
2017-12-26T02:41:32.176Z,23.57
2017-12-26T02:44:00.915Z,24.60
2017-12-26T02:46:28.349Z,27.10
2017-12-26T02:48:55.775Z,25.80
2017-12-26T02:51:23.967Z,27.47
2017-12-26T02:53:51.397Z,26.83
2017-12-26T02:56:19.588Z,25.83
2017-12-26T02:58:47.019Z,25.10
2017-12-26T03:01:14.451Z,25.50
2017-12-26T03:03:41.888Z,22.90
2017-12-26T03:06:09.309Z,27.20
2017-12-26T03:08:37.510Z,26.33
2017-12-26T03:11:04.923Z,31.50
2017-12-26T03:13:33.573Z,31.07
2017-12-26T03:16:00.987Z,26.60
2017-12-26T03:18:29.185Z,25.37
2017-12-26T03:20:57.652Z,27.37
2017-12-26T03:23:25.467Z,25.33
2017-12-26T03:25:52.877Z,24.97
2017-12-26T03:28:20.300Z,31.67
2017-12-26T03:30:47.729Z,30.63
2017-12-26T03:33:15.156Z,28.50
2017-12-26T03:35:45.148Z,26.97
2017-12-26T03:38:13.851Z,23.00
2017-12-26T03:40:42.009Z,21.37
2017-12-26T03:43:10.195Z,23.37
2017-12-26T03:45:37.619Z,27.43
2017-12-26T03:48:05.048Z,24.23
2017-12-26T03:50:32.884Z,21.40
2017-12-26T03:53:01.129Z,23.20
2017-12-26T03:55:29.319Z,23.27
2017-12-26T03:57:56.744Z,28.20
2017-12-26T04:00:24.577Z,21.57
2017-12-26T04:02:53.615Z,25.80
2017-12-26T04:05:21.043Z,36.80
2017-12-26T04:07:49.123Z,34.47
2017-12-26T04:10:17.304Z,29.20
2017-12-26T04:12:44.723Z,27.00
2017-12-26T04:15:12.688Z,24.83
2017-12-26T04:17:40.139Z,24.70
2017-12-26T04:20:08.096Z,24.23
2017-12-26T04:22:35.523Z,25.37
2017-12-26T04:25:04.439Z,25.33
2017-12-26T04:27:32.559Z,25.83
2017-12-26T04:29:59.986Z,24.50
2017-12-26T04:32:27.419Z,21.70
2017-12-26T04:34:55.621Z,23.43
2017-12-26T04:37:42.639Z,23.23
2017-12-26T04:40:10.812Z,26.47
2017-12-26T04:42:39.016Z,26.67
2017-12-26T04:45:07.009Z,28.63
2017-12-26T04:47:35.006Z,25.43
2017-12-26T04:50:03.921Z,26.97
2017-12-26T04:52:31.347Z,24.63
2017-12-26T04:54:58.767Z,24.40
2017-12-26T04:57:26.608Z,25.37
2017-12-26T04:59:54.017Z,23.10
2017-12-26T05:02:22.216Z,23.50
2017-12-26T05:04:49.642Z,25.40
2017-12-26T05:07:17.835Z,26.63
2017-12-26T05:09:45.261Z,23.73
2017-12-26T05:12:12.700Z,23.17
2017-12-26T05:14:40.128Z,26.10
2017-12-26T05:17:07.572Z,24.20
2017-12-26T05:19:35.538Z,24.03
2017-12-26T05:22:02.983Z,24.87
2017-12-26T05:24:33.622Z,24.13
2017-12-26T05:27:01.468Z,22.40
2017-12-26T05:29:28.868Z,25.90
2017-12-26T05:31:56.295Z,22.67
2017-12-26T05:34:23.727Z,23.07
2017-12-26T05:36:51.546Z,24.87
2017-12-26T05:39:18.979Z,21.90
2017-12-26T05:41:46.403Z,31.50
2017-12-26T05:44:14.248Z,26.53
2017-12-26T05:46:41.673Z,26.00
2017-12-26T05:49:09.385Z,26.53
2017-12-26T05:51:36.788Z,26.17
2017-12-26T05:54:04.213Z,23.77
2017-12-26T05:56:32.400Z,22.30
2017-12-26T05:59:00.604Z,20.27
2017-12-26T06:01:28.025Z,19.73
2017-12-26T06:03:56.770Z,21.40
2017-12-26T06:06:35.304Z,21.80
2017-12-26T06:09:10.733Z,22.30
2017-12-26T06:12:01.928Z,22.33
2017-12-26T06:14:29.360Z,23.53
2017-12-26T06:19:49.443Z,26.93
2017-12-26T06:22:17.631Z,25.83
2017-12-26T06:24:45.072Z,29.27
2017-12-26T06:27:20.293Z,28.00
2017-12-26T06:29:48.480Z,29.83
2017-12-26T06:32:16.208Z,26.40
2017-12-26T06:34:43.641Z,22.40
2017-12-26T06:37:11.062Z,24.97
2017-12-26T06:39:39.262Z,23.63
2017-12-26T06:42:06.684Z,24.83
2017-12-26T06:44:34.121Z,23.70
2017-12-26T06:47:01.549Z,25.60
2017-12-26T06:49:28.987Z,25.67
2017-12-26T06:51:56.416Z,24.73
2017-12-26T06:54:28.169Z,27.33
2017-12-26T06:56:55.601Z,37.37
2017-12-26T06:59:23.030Z,49.33
2017-12-26T07:01:50.461Z,34.73
2017-12-26T07:04:18.652Z,26.83
2017-12-26T07:06:46.080Z,21.40
2017-12-26T07:09:14.276Z,22.37
2017-12-26T07:11:41.710Z,22.10
2017-12-26T07:14:10.330Z,22.87
2017-12-26T07:16:38.172Z,23.33
2017-12-26T07:19:05.570Z,25.63
2017-12-26T07:21:38.589Z,24.37
2017-12-26T07:24:06.015Z,22.53
2017-12-26T07:26:33.443Z,21.20
2017-12-26T07:29:00.874Z,24.23
2017-12-26T07:31:29.076Z,24.73
2017-12-26T07:33:56.511Z,24.90
2017-12-26T07:36:25.222Z,23.47
2017-12-26T07:38:52.639Z,24.57
2017-12-26T07:41:20.072Z,24.87
2017-12-26T07:43:47.501Z,25.17
2017-12-26T07:46:15.627Z,26.07
2017-12-26T07:48:43.042Z,27.27
2017-12-26T07:51:14.161Z,29.47
2017-12-26T07:53:47.649Z,30.43
2017-12-26T07:56:16.383Z,31.77
2017-12-26T07:58:55.106Z,32.93
2017-12-26T08:01:22.971Z,31.27
2017-12-26T08:03:50.421Z,29.50
2017-12-26T08:06:17.923Z,28.13
2017-12-26T08:08:46.123Z,26.57
2017-12-26T08:11:13.563Z,27.07
2017-12-26T08:13:40.976Z,26.50
2017-12-26T08:16:08.409Z,22.50
2017-12-26T08:18:35.840Z,23.43
2017-12-26T08:21:04.339Z,25.23
2017-12-26T08:23:32.175Z,25.47
2017-12-26T08:25:59.931Z,23.17
2017-12-26T08:28:29.774Z,23.63
2017-12-26T08:30:57.943Z,23.57
2017-12-26T08:33:25.364Z,22.50
2017-12-26T08:36:12.239Z,23.70
2017-12-26T08:38:39.659Z,21.10
2017-12-26T08:41:08.420Z,20.57
2017-12-26T08:43:35.843Z,21.57
2017-12-26T08:46:03.269Z,20.17
2017-12-26T08:48:31.455Z,20.60
2017-12-26T08:50:59.403Z,18.73
2017-12-26T08:53:27.594Z,20.67
2017-12-26T08:55:55.007Z,18.50
2017-12-26T08:58:22.434Z,20.07
2017-12-26T09:00:49.843Z,26.60
2017-12-26T09:03:21.359Z,33.43
2017-12-26T09:05:49.208Z,27.33
2017-12-26T09:08:17.192Z,20.43
2017-12-26T09:10:44.612Z,20.60
2017-12-26T09:13:12.036Z,20.27
2017-12-26T09:15:39.463Z,18.13
2017-12-26T09:18:06.892Z,15.83
2017-12-26T09:20:34.599Z,15.53
2017-12-26T09:23:02.331Z,14.73
2017-12-26T09:25:30.272Z,11.57
2017-12-26T09:27:57.705Z,10.00
2017-12-26T09:30:25.107Z,9.60
2017-12-26T09:32:52.531Z,9.43
2017-12-26T09:35:21.693Z,8.67
2017-12-26T09:37:49.092Z,8.57
2017-12-26T09:40:16.507Z,8.17
2017-12-26T09:42:45.627Z,8.17
2017-12-26T09:45:13.817Z,7.60
2017-12-26T09:47:42.015Z,7.67
2017-12-26T09:50:09.459Z,7.27
2017-12-26T09:52:36.869Z,6.43
2017-12-26T09:55:04.284Z,6.87
2017-12-26T09:57:31.704Z,7.40
2017-12-26T09:59:59.895Z,7.27
2017-12-26T10:02:27.708Z,6.83
2017-12-26T10:04:55.133Z,6.67
2017-12-26T10:07:23.092Z,6.23
2017-12-26T10:09:50.508Z,6.20
2017-12-26T10:12:17.927Z,7.00
2017-12-26T10:14:47.955Z,7.17
2017-12-26T10:17:15.367Z,7.33
2017-12-26T10:19:43.547Z,7.63
2017-12-26T10:22:10.967Z,6.90
2017-12-26T10:24:38.383Z,7.23
2017-12-26T10:27:05.808Z,7.50
2017-12-26T10:29:34.001Z,7.03
2017-12-26T10:32:01.421Z,7.30
2017-12-26T10:34:28.838Z,7.20
2017-12-26T10:36:56.268Z,6.67
2017-12-26T10:39:23.956Z,6.53
2017-12-26T10:41:51.896Z,7.30
2017-12-26T10:44:19.316Z,6.57
2017-12-26T10:46:46.740Z,6.33
2017-12-26T10:49:14.152Z,6.30
2017-12-26T10:51:42.358Z,5.50
2017-12-26T10:54:10.586Z,5.53
2017-12-26T10:56:39.554Z,4.73
2017-12-26T10:59:07.560Z,4.70
2017-12-26T11:01:35.748Z,4.90
2017-12-26T11:04:03.733Z,4.53
2017-12-26T11:06:31.155Z,3.70
2017-12-26T11:08:59.358Z,4.10
2017-12-26T11:11:27.518Z,3.77
2017-12-26T11:13:56.221Z,3.43
2017-12-26T11:16:24.198Z,2.80
2017-12-26T11:18:52.028Z,1.43
2017-12-26T11:21:20.237Z,1.10
2017-12-26T11:23:47.660Z,0.93
2017-12-26T11:26:15.853Z,0.63
2017-12-26T11:28:43.272Z,0.83
2017-12-26T11:31:10.684Z,0.73
2017-12-26T11:33:38.114Z,0.70
2017-12-26T11:36:06.292Z,0.70
2017-12-26T11:38:34.512Z,0.70
2017-12-26T11:41:01.934Z,1.07
2017-12-26T11:43:29.352Z,0.60
2017-12-26T11:45:56.774Z,0.73
2017-12-26T11:48:24.197Z,0.50
2017-12-26T11:50:52.060Z,0.50
2017-12-26T11:53:19.488Z,0.40
2017-12-26T11:55:47.288Z,0.40
2017-12-26T11:58:15.572Z,0.40
2017-12-26T12:00:42.992Z,0.83
2017-12-26T12:03:11.198Z,0.50
2017-12-26T12:05:39.045Z,0.60
2017-12-26T12:08:07.237Z,0.50
2017-12-26T12:10:34.658Z,0.50
2017-12-26T12:13:02.082Z,0.40
2017-12-26T12:15:29.496Z,0.40
2017-12-26T12:17:58.115Z,0.57
2017-12-26T12:20:25.545Z,0.50
2017-12-26T12:22:52.968Z,0.67
2017-12-26T12:25:20.400Z,0.60
2017-12-26T12:27:48.332Z,0.60
2017-12-26T12:30:15.754Z,0.70
2017-12-26T12:32:43.165Z,0.80
2017-12-26T12:35:11.120Z,0.70
2017-12-26T12:37:38.532Z,0.77
2017-12-26T12:40:07.873Z,0.67
2017-12-26T12:42:36.042Z,0.60
2017-12-26T12:45:03.880Z,0.50
2017-12-26T12:47:31.294Z,0.70
2017-12-26T12:49:58.712Z,0.60
2017-12-26T12:52:26.138Z,0.60
2017-12-26T12:54:53.567Z,0.53
2017-12-26T12:57:21.256Z,0.77
2017-12-26T12:59:49.632Z,0.50
2017-12-26T13:02:17.052Z,0.60
2017-12-26T13:04:44.494Z,0.60
2017-12-26T13:07:11.913Z,0.70
2017-12-26T13:09:39.321Z,0.60
2017-12-26T13:12:06.747Z,0.60
2017-12-26T13:14:35.641Z,1.00
2017-12-26T13:17:04.263Z,0.53
2017-12-26T13:19:31.672Z,0.50
2017-12-26T13:22:00.695Z,0.50
2017-12-26T13:24:28.113Z,0.63
2017-12-26T13:26:55.531Z,0.60
2017-12-26T13:29:22.948Z,0.50
2017-12-26T13:31:50.377Z,0.67
2017-12-26T13:34:17.800Z,0.60
2017-12-26T13:36:45.221Z,0.63
2017-12-26T13:39:13.084Z,0.60
2017-12-26T13:41:40.936Z,0.60
2017-12-26T13:44:09.124Z,0.60
2017-12-26T13:46:36.973Z,0.60
2017-12-26T13:49:05.143Z,0.70
2017-12-26T13:51:33.337Z,0.90
2017-12-26T13:54:00.741Z,0.80
2017-12-26T13:56:28.157Z,0.80
2017-12-26T13:58:55.603Z,0.60
2017-12-26T14:01:23.802Z,0.90
2017-12-26T14:03:52.216Z,0.77
2017-12-26T14:06:19.647Z,0.60
2017-12-26T14:08:47.055Z,0.80
2017-12-26T14:11:15.241Z,0.83
2017-12-26T14:13:43.422Z,0.60
2017-12-26T14:16:10.855Z,0.70
2017-12-26T14:18:38.264Z,0.50
2017-12-26T14:21:05.694Z,0.57
2017-12-26T14:23:33.787Z,0.70
2017-12-26T14:26:01.756Z,0.70
2017-12-26T14:28:29.600Z,0.60
2017-12-26T14:30:57.547Z,0.80
2017-12-26T14:33:26.336Z,0.90
2017-12-26T14:35:54.517Z,1.40
2017-12-26T14:38:22.720Z,0.80
2017-12-26T14:40:50.551Z,0.70
2017-12-26T14:43:17.957Z,0.60
2017-12-26T14:45:45.988Z,0.70
2017-12-26T14:48:14.175Z,0.73
2017-12-26T14:50:41.911Z,0.60
2017-12-26T14:53:10.224Z,0.70
2017-12-26T14:55:37.631Z,0.80
2017-12-26T14:58:05.479Z,0.80
2017-12-26T15:00:32.887Z,1.20
2017-12-26T15:03:00.309Z,0.90
2017-12-26T15:05:30.164Z,0.90
2017-12-26T15:07:57.587Z,0.90
2017-12-26T15:10:24.996Z,0.87
2017-12-26T15:12:54.939Z,0.97
2017-12-26T15:15:23.447Z,0.80
2017-12-26T15:17:50.882Z,0.70
2017-12-26T15:20:32.619Z,0.80
2017-12-26T15:23:00.049Z,0.87
2017-12-26T15:25:27.468Z,0.57
2017-12-26T15:27:54.893Z,0.80
2017-12-26T15:30:22.299Z,0.63
2017-12-26T15:32:49.921Z,0.90
2017-12-26T15:35:18.084Z,1.00
2017-12-26T15:37:45.497Z,0.50
2017-12-26T15:40:12.919Z,0.70
2017-12-26T15:42:40.334Z,0.70
2017-12-26T15:45:09.041Z,0.93
2017-12-26T15:47:37.200Z,0.57
2017-12-26T15:50:04.599Z,0.87
2017-12-26T15:52:32.018Z,0.60
2017-12-26T15:55:00.992Z,0.70
2017-12-26T15:57:28.411Z,1.00
2017-12-26T15:59:56.607Z,0.90
2017-12-26T16:02:24.025Z,0.73
2017-12-26T16:04:51.845Z,1.03
2017-12-26T16:07:19.244Z,0.70
2017-12-26T16:09:47.531Z,0.63
2017-12-26T16:12:14.951Z,0.73
2017-12-26T16:14:43.131Z,0.73
2017-12-26T16:17:10.966Z,1.10
2017-12-26T16:19:38.378Z,0.77
2017-12-26T16:22:05.794Z,0.60
2017-12-26T16:24:37.647Z,0.90
2017-12-26T16:27:05.316Z,0.63
2017-12-26T16:29:32.708Z,0.80
2017-12-26T16:32:00.120Z,0.73
2017-12-26T16:34:28.667Z,0.90
2017-12-26T16:36:56.084Z,1.00
2017-12-26T16:39:23.972Z,0.70
2017-12-26T16:41:51.376Z,0.77
2017-12-26T16:44:18.788Z,1.10
2017-12-26T16:46:46.736Z,0.80
2017-12-26T16:49:14.144Z,1.20
2017-12-26T16:51:41.564Z,0.70
2017-12-26T16:54:08.975Z,0.90
2017-12-26T16:56:36.795Z,0.70
2017-12-26T16:59:04.206Z,0.90
2017-12-26T17:01:33.565Z,1.00
2017-12-26T17:04:00.980Z,0.77
2017-12-26T17:06:28.399Z,0.63
2017-12-26T17:08:55.831Z,0.83
2017-12-26T17:11:23.256Z,0.97
2017-12-26T17:13:51.480Z,0.97
2017-12-26T17:16:18.983Z,1.00
2017-12-26T17:18:47.167Z,1.07
2017-12-26T17:21:15.264Z,1.20
2017-12-26T17:23:42.692Z,1.20
2017-12-26T17:26:10.874Z,1.03
2017-12-26T17:28:38.282Z,1.13
2017-12-26T17:31:08.299Z,0.90
2017-12-26T17:33:35.714Z,1.10
2017-12-26T17:36:03.671Z,0.70
2017-12-26T17:38:31.086Z,0.83
2017-12-26T17:40:58.505Z,1.40
2017-12-26T17:43:26.324Z,1.00
2017-12-26T17:45:53.713Z,1.03
2017-12-26T17:48:21.675Z,0.87
2017-12-26T17:50:49.612Z,1.10
2017-12-26T17:53:18.420Z,1.10
2017-12-26T17:55:46.592Z,1.20
2017-12-26T17:58:14.828Z,1.10
2017-12-26T18:00:42.643Z,1.00
2017-12-26T18:03:10.816Z,0.90
2017-12-26T18:05:38.611Z,1.03
2017-12-26T18:08:06.792Z,1.33
2017-12-26T18:10:34.925Z,0.73
2017-12-26T18:13:02.555Z,1.00
2017-12-26T18:15:29.969Z,0.80
2017-12-26T18:18:20.268Z,0.90
2017-12-26T18:20:47.672Z,0.80
2017-12-26T18:23:15.859Z,1.10
2017-12-26T18:25:44.969Z,1.00
2017-12-26T18:28:13.135Z,0.80
2017-12-26T18:30:41.867Z,0.77
2017-12-26T18:33:09.821Z,0.70
2017-12-26T18:35:39.847Z,1.23
2017-12-26T18:38:07.695Z,1.23
2017-12-26T18:40:35.110Z,1.00
2017-12-26T18:43:03.842Z,1.13
2017-12-26T18:45:31.953Z,1.10
2017-12-26T18:47:59.903Z,0.80
2017-12-26T18:50:27.781Z,0.90
2017-12-26T18:52:55.212Z,1.10
2017-12-26T18:55:22.623Z,1.13
2017-12-26T18:57:50.802Z,1.23
2017-12-26T19:00:18.987Z,0.97
2017-12-26T19:02:47.167Z,1.10
2017-12-26T19:05:14.586Z,1.50
2017-12-26T19:07:42.011Z,1.30
2017-12-26T19:10:09.847Z,1.10
2017-12-26T19:12:37.271Z,1.00
2017-12-26T19:15:04.696Z,0.80
2017-12-26T19:17:32.697Z,1.00
2017-12-26T19:20:03.311Z,1.30
2017-12-26T19:22:30.731Z,1.73
2017-12-26T19:24:58.194Z,1.00
2017-12-26T19:27:25.667Z,1.20
2017-12-26T19:29:53.124Z,1.37
2017-12-26T19:32:20.612Z,1.37
2017-12-26T19:34:48.072Z,1.30
2017-12-26T19:37:15.523Z,1.50
2017-12-26T19:39:43.533Z,1.57
2017-12-26T19:42:11.676Z,1.63
2017-12-26T19:44:39.092Z,1.67
2017-12-26T19:47:06.522Z,1.80
2017-12-26T19:49:34.248Z,2.13
2017-12-26T19:52:02.622Z,1.90
2017-12-26T19:54:30.075Z,2.80
2017-12-26T19:56:57.555Z,1.97
2017-12-26T19:59:26.611Z,1.40
2017-12-26T20:01:54.080Z,1.90
2017-12-26T20:04:21.645Z,1.90
2017-12-26T20:06:49.136Z,1.50
2017-12-26T20:09:16.822Z,1.70
2017-12-26T20:11:44.477Z,1.50
2017-12-26T20:14:12.385Z,1.70
2017-12-26T20:16:40.120Z,2.03
2017-12-26T20:19:07.974Z,1.77
2017-12-26T20:21:35.448Z,1.83
2017-12-26T20:24:03.710Z,1.97
2017-12-26T20:26:31.179Z,2.00
2017-12-26T20:28:58.633Z,1.77
2017-12-26T20:31:26.127Z,1.80
2017-12-26T20:33:54.282Z,1.77
2017-12-26T20:36:21.704Z,2.50
2017-12-26T20:38:49.178Z,2.20
2017-12-26T20:41:16.640Z,1.97
2017-12-26T20:43:44.092Z,1.93
2017-12-26T20:46:11.549Z,1.87
2017-12-26T20:48:39.042Z,1.90
2017-12-26T20:51:06.495Z,1.80
2017-12-26T20:53:33.978Z,2.20
2017-12-26T20:56:01.411Z,2.03
2017-12-26T20:58:29.160Z,2.33
2017-12-26T21:00:56.618Z,2.23
2017-12-26T21:03:24.846Z,2.00
2017-12-26T21:06:03.785Z,2.20
2017-12-26T21:08:31.255Z,1.77
2017-12-26T21:10:58.678Z,2.20
2017-12-26T21:13:26.164Z,2.20
2017-12-26T21:15:54.227Z,1.87
2017-12-26T21:18:21.733Z,1.80
2017-12-26T21:20:49.191Z,2.00
2017-12-26T21:23:16.656Z,2.23
2017-12-26T21:25:45.079Z,2.30
2017-12-26T21:28:13.647Z,2.27
2017-12-26T21:30:41.527Z,2.17
2017-12-26T21:33:10.315Z,2.30
2017-12-26T21:35:37.796Z,2.03
2017-12-26T21:38:12.694Z,2.13
2017-12-26T21:40:40.097Z,2.20
2017-12-26T21:43:07.528Z,2.50
2017-12-26T21:45:36.518Z,2.10
2017-12-26T21:48:04.804Z,2.27
2017-12-26T21:50:32.682Z,2.30
2017-12-26T21:53:00.168Z,2.40
2017-12-26T21:55:30.083Z,2.37
2017-12-26T21:57:58.324Z,2.23
2017-12-26T22:00:25.789Z,2.40
2017-12-26T22:02:54.372Z,2.83
2017-12-26T22:05:21.829Z,2.50
2017-12-26T22:07:50.108Z,2.60
2017-12-26T22:10:17.820Z,2.73
2017-12-26T22:12:45.221Z,2.60
2017-12-26T22:15:12.695Z,2.60
2017-12-26T22:17:40.169Z,2.40
2017-12-26T22:20:08.167Z,2.47
2017-12-26T22:22:35.619Z,2.50
2017-12-26T22:25:03.908Z,2.63
2017-12-26T22:27:33.195Z,2.53
2017-12-26T22:30:01.266Z,2.53
2017-12-26T22:32:28.956Z,2.20
2017-12-26T22:34:57.486Z,2.80
2017-12-26T22:37:24.940Z,2.53
2017-12-26T22:39:52.440Z,2.60
2017-12-26T22:42:20.667Z,2.20
2017-12-26T22:44:49.661Z,2.70
2017-12-26T22:47:19.575Z,2.33
2017-12-26T22:49:48.059Z,2.43
2017-12-26T22:52:16.055Z,2.40
2017-12-26T22:54:43.969Z,2.33
2017-12-26T22:57:11.427Z,2.43
2017-12-26T22:59:39.430Z,2.60
2017-12-26T23:02:06.859Z,2.77
2017-12-26T23:04:34.264Z,2.63
2017-12-26T23:07:01.691Z,2.30
2017-12-26T23:09:29.102Z,1.90
2017-12-26T23:11:59.722Z,3.20
2017-12-26T23:14:33.643Z,3.13
2017-12-26T23:17:08.264Z,2.40
2017-12-26T23:19:42.041Z,2.30
2017-12-26T23:22:09.460Z,2.70
2017-12-26T23:24:43.303Z,2.40
2017-12-26T23:27:16.531Z,2.67
2017-12-26T23:29:50.361Z,1.97
2017-12-26T23:32:24.207Z,2.40
2017-12-26T23:34:58.583Z,2.10
2017-12-26T23:37:32.334Z,2.30
2017-12-26T23:40:06.128Z,2.10
2017-12-26T23:42:39.197Z,2.17
2017-12-26T23:45:13.415Z,1.90
2017-12-26T23:47:48.911Z,2.23
2017-12-26T23:50:21.951Z,1.73
2017-12-26T23:56:01.514Z,1.83
2017-12-26T23:58:34.498Z,2.10
